Time;durP1;ratioP1;P1;durP2;ratioP2;P2;SDS_P1;SDS_P2;PMS_P1;PMS_P2;Temp;Humidity;BMP_temperature;BMP_pressure;BME280_temperature;BME280_humidity;BME280_pressure;Samples;Min_cycle;Max_cycle;Signal;HPM_P1;HPM_P2
2023/06/26 00:01:12;;;;;;;;;;;;;;;15.65;47.03;100240.94;5058715;28;1399;-59
2023/06/26 00:03:37;;;;;;;;;;;;;;;15.70;47.05;100232.69;5058907;28;1364;-60
2023/06/26 00:06:03;;;;;;;;;;;;;;;15.71;47.16;100230.75;5059183;28;1306;-60
2023/06/26 00:08:28;;;;;;;;;;;;;;;15.70;47.17;100238.16;5058913;28;1228;-60
2023/06/26 00:10:54;;;;;;;;;;;;;;;15.64;47.32;100230.25;5058727;28;1902;-60
2023/06/26 00:13:20;;;;;;;;;;;;;;;15.66;47.27;100239.84;5058574;28;1352;-60
2023/06/26 00:15:45;;;;;;;;;;;;;;;15.68;46.99;100243.13;5059123;28;1321;-60
2023/06/26 00:18:10;;;;;;;;;;;;;;;15.73;47.27;100239.53;5058563;28;1444;-60
2023/06/26 00:20:36;;;;;;;;;;;;;;;15.65;47.23;100240.94;5058888;28;1254;-60
2023/06/26 00:23:04;;;;;;;;;;;;;;;15.57;47.55;100246.97;5059149;28;1301;-60
2023/06/26 00:25:29;;;;;;;;;;;;;;;15.61;47.42;100248.06;5058465;28;1211;-60
2023/06/26 00:27:54;;;;;;;;;;;;;;;15.64;47.04;100244.78;5059121;28;1329;-60
2023/06/26 00:30:20;;;;;;;;;;;;;;;15.60;47.09;100249.19;5040466;28;1960;-60
2023/06/26 00:32:45;;;;;;;;;;;;;;;15.59;47.25;100247.53;5040506;28;1395;-60
2023/06/26 00:35:11;;;;;;;;;;;;;;;15.62;47.42;100240.69;5058575;28;1321;-60
2023/06/26 00:37:36;;;;;;;;;;;;;;;15.58;47.41;100234.94;5058222;28;1036;-60
2023/06/26 00:40:04;;;;;;;;;;;;;;;15.65;47.15;100229.97;5058095;28;1325;-60
2023/06/26 00:42:31;;;;;;;;;;;;;;;15.68;46.82;100229.44;5040582;28;1337;-60
2023/06/26 00:44:57;;;;;;;;;;;;;;;15.64;47.01;100228.34;5058293;28;1361;-60
2023/06/26 00:47:23;;;;;;;;;;;;;;;15.59;47.34;100214.66;5039849;28;1356;-59
2023/06/26 00:49:48;;;;;;;;;;;;;;;15.59;47.35;100224.81;5039927;28;1934;-59
2023/06/26 00:52:14;;;;;;;;;;;;;;;15.63;47.11;100220.41;5040504;28;1325;-57
2023/06/26 00:54:39;;;;;;;;;;;;;;;15.66;46.96;100220.66;5040312;28;1563;-59
2023/06/26 00:57:05;;;;;;;;;;;;;;;15.57;47.29;100214.09;5058227;28;1373;-60
2023/06/26 00:59:32;;;;;;;;;;;;;;;15.65;47.01;100218.19;5057574;28;1305;-60
2023/06/26 01:01:58;;;;;;;;;;;;;;;15.61;47.26;100222.59;5057940;28;1126;-60
2023/06/26 01:04:27;;;;;;;;;;;;;;;15.67;47.03;100216.81;5057810;28;1286;-60
2023/06/26 01:06:52;;;;;;;;;;;;;;;15.61;46.99;100212.44;5039882;28;1920;-61
2023/06/26 01:09:18;;;;;;;;;;;;;;;15.64;47.22;100209.16;5039712;28;1910;-60
2023/06/26 01:11:43;;;;;;;;;;;;;;;15.68;47.46;100218.47;5040016;28;1652;-60
2023/06/26 01:14:09;;;;;;;;;;;;;;;15.56;47.28;100220.69;5039853;28;1287;-60
2023/06/26 01:16:35;;;;;;;;;;;;;;;15.65;47.47;100219.00;5057746;28;1314;-60
2023/06/26 01:19:00;;;;;;;;;;;;;;;15.56;47.47;100221.50;5019900;28;1409;-60
2023/06/26 01:21:32;;;;;;;;;;;;;;;15.54;47.50;100220.16;5039700;28;1362;-60
2023/06/26 01:23:58;;;;;;;;;;;;;;;15.63;47.27;100217.66;5057724;28;1298;-60
2023/06/26 01:26:24;;;;;;;;;;;;;;;15.64;47.23;100217.38;5039422;28;1136;-60
2023/06/26 01:28:50;;;;;;;;;;;;;;;15.64;47.39;100227.50;5039096;28;1906;-60
2023/06/26 01:31:16;;;;;;;;;;;;;;;15.68;47.07;100218.47;5057460;28;1329;-61
2023/06/26 01:33:41;;;;;;;;;;;;;;;15.62;47.13;100222.31;5039625;28;1415;-60
2023/06/26 01:36:07;;;;;;;;;;;;;;;15.60;47.20;100223.69;5039983;28;1326;-60
2023/06/26 01:38:34;;;;;;;;;;;;;;;15.64;47.25;100220.13;5056847;28;1063;-60
2023/06/26 01:41:00;;;;;;;;;;;;;;;15.59;47.38;100220.13;5057688;28;1119;-60
2023/06/26 01:43:44;;;;;;;;;;;;;;;15.61;47.05;100222.59;5057010;28;1293;-60
2023/06/26 01:46:12;;;;;;;;;;;;;;;15.63;47.02;100223.97;5057328;28;1281;-59
2023/06/26 01:48:44;;;;;;;;;;;;;;;15.53;47.22;100219.34;5056368;28;1914;-59
2023/06/26 01:51:09;;;;;;;;;;;;;;;15.63;47.26;100221.22;5022640;28;1338;-59
2023/06/26 01:53:36;;;;;;;;;;;;;;;15.51;47.48;100221.53;5039531;28;1258;-59
2023/06/26 01:56:09;;;;;;;;;;;;;;;15.66;46.93;100214.34;5038307;28;1321;-59
2023/06/26 01:58:35;;;;;;;;;;;;;;;15.66;47.14;100225.31;5039206;28;1373;-59
2023/06/26 02:01:01;;;;;;;;;;;;;;;15.58;46.98;100223.97;5038929;28;1322;-59
2023/06/26 02:03:27;;;;;;;;;;;;;;;15.56;47.23;100215.22;5056765;28;1349;-59
2023/06/26 02:05:52;;;;;;;;;;;;;;;15.58;47.08;100221.22;5039072;28;1494;-59
2023/06/26 02:08:18;;;;;;;;;;;;;;;15.60;47.03;100220.94;5038631;28;1235;-59
2023/06/26 02:10:48;;;;;;;;;;;;;;;15.66;46.77;100217.09;5056439;28;1977;-59
2023/06/26 02:13:15;;;;;;;;;;;;;;;15.63;46.90;100215.72;5056424;28;1245;-59
2023/06/26 02:15:41;;;;;;;;;;;;;;;15.60;46.78;100218.19;5038513;28;2098;-59
2023/06/26 02:18:07;;;;;;;;;;;;;;;15.70;47.41;100223.66;5056419;28;1321;-59
2023/06/26 02:20:33;;;;;;;;;;;;;;;16.17;48.46;100216.84;5056664;28;1297;-59
2023/06/26 02:22:59;;;;;;;;;;;;;;;15.86;48.65;100216.19;5056639;28;1091;-59
2023/06/26 02:25:24;;;;;;;;;;;;;;;15.79;48.30;100213.75;5056295;28;1313;-59
2023/06/26 02:27:51;;;;;;;;;;;;;;;15.90;47.47;100200.81;5038950;28;1508;-59
2023/06/26 02:30:18;;;;;;;;;;;;;;;15.74;47.53;100206.34;5056356;28;1902;-59
2023/06/26 02:32:45;;;;;;;;;;;;;;;15.68;47.40;100201.19;5056295;28;1301;-59
2023/06/26 02:35:10;;;;;;;;;;;;;;;15.68;47.29;100207.50;5038555;28;1586;-59
2023/06/26 02:37:41;;;;;;;;;;;;;;;15.69;47.13;100211.84;5056138;28;1380;-59
2023/06/26 02:40:08;;;;;;;;;;;;;;;15.76;47.25;100205.25;5025393;28;1310;-59
2023/06/26 02:42:34;;;;;;;;;;;;;;;15.71;46.98;100198.72;5038246;28;1361;-59
2023/06/26 02:45:00;;;;;;;;;;;;;;;15.62;47.24;100199.56;5038310;28;1413;-59
2023/06/26 02:47:27;;;;;;;;;;;;;;;15.65;47.08;100202.56;5038465;28;1317;-59
2023/06/26 02:49:52;;;;;;;;;;;;;;;15.63;47.30;100199.28;5055883;28;1909;-58
2023/06/26 02:52:19;;;;;;;;;;;;;;;15.59;47.38;100200.13;5056166;28;1360;-59
2023/06/26 02:54:44;;;;;;;;;;;;;;;15.63;47.05;100214.94;5037949;28;1333;-59
2023/06/26 02:57:12;;;;;;;;;;;;;;;15.66;46.94;100215.16;5038268;28;1439;-58
2023/06/26 02:59:39;;;;;;;;;;;;;;;15.69;47.13;100208.31;5056003;28;1293;-56
2023/06/26 03:02:05;;;;;;;;;;;;;;;15.63;47.29;100207.50;5038123;28;1358;-55
2023/06/26 03:04:43;;;;;;;;;;;;;;;15.67;47.05;100208.59;5025752;28;1236;-61
2023/06/26 03:07:11;;;;;;;;;;;;;;;15.66;47.06;100206.94;5040344;28;1468;-58
2023/06/26 03:09:38;;;;;;;;;;;;;;;15.55;47.02;100208.91;5041789;28;1975;-56
2023/06/26 03:12:04;;;;;;;;;;;;;;;15.63;47.00;100210.25;5042067;28;1419;-55
2023/06/26 03:14:31;;;;;;;;;;;;;;;15.65;46.74;100207.22;5041887;28;1318;-56
2023/06/26 03:16:58;;;;;;;;;;;;;;;15.69;46.71;100206.38;5042312;28;1321;-56
2023/06/26 03:19:25;;;;;;;;;;;;;;;15.60;46.95;100202.59;5028740;28;1202;-56
2023/06/26 03:22:14;;;;;;;;;;;;;;;15.62;46.77;100211.34;5049084;28;1328;-55
2023/06/26 03:24:39;;;;;;;;;;;;;;;15.53;47.13;100218.53;5041974;28;1584;-56
2023/06/26 03:27:05;;;;;;;;;;;;;;;15.66;46.93;100201.47;5041776;28;1108;-56
2023/06/26 03:29:31;;;;;;;;;;;;;;;15.57;46.99;100208.63;5041987;28;1910;-58
2023/06/26 03:31:56;;;;;;;;;;;;;;;15.59;46.96;100213.84;5041158;28;1301;-58
2023/06/26 03:34:23;;;;;;;;;;;;;;;15.64;46.72;100213.81;5059548;28;1274;-58
2023/06/26 03:36:48;;;;;;;;;;;;;;;15.58;47.32;100210.25;5059643;28;1317;-59
2023/06/26 03:39:14;;;;;;;;;;;;;;;15.63;47.15;100213.00;5028187;28;1229;-59
2023/06/26 03:41:40;;;;;;;;;;;;;;;15.58;47.28;100218.47;5041850;28;2080;-60
2023/06/26 03:44:05;;;;;;;;;;;;;;;15.62;46.91;100208.59;5059520;28;1120;-60
2023/06/26 03:46:41;;;;;;;;;;;;;;;15.56;47.27;100210.53;5041535;28;1337;-57
2023/06/26 03:49:06;;;;;;;;;;;;;;;15.60;46.85;100220.94;5037961;28;1897;-56
2023/06/26 03:51:32;;;;;;;;;;;;;;;15.56;47.23;100215.22;5029845;28;965;-56
2023/06/26 03:53:57;;;;;;;;;;;;;;;15.67;46.78;100214.06;5035400;28;1084;-54
2023/06/26 03:56:23;;;;;;;;;;;;;;;15.56;47.23;100212.47;5034529;28;1209;-53
2023/06/26 03:58:48;;;;;;;;;;;;;;;15.64;46.97;100211.91;5029657;28;1171;-54
2023/06/26 04:01:14;;;;;;;;;;;;;;;15.59;47.03;100205.63;5032378;28;1274;-54
2023/06/26 04:03:39;;;;;;;;;;;;;;;15.61;47.23;100208.88;5038530;28;1040;-52
2023/06/26 04:06:05;;;;;;;;;;;;;;;15.63;46.94;100204.78;5029365;28;1011;-53
2023/06/26 04:08:32;;;;;;;;;;;;;;;15.60;47.14;100199.84;5024355;28;1191;-55
2023/06/26 04:10:58;;;;;;;;;;;;;;;15.62;46.96;100202.31;5037941;28;1980;-52
2023/06/26 04:13:24;;;;;;;;;;;;;;;15.64;46.97;100202.84;5033160;28;1542;-52
2023/06/26 04:15:49;;;;;;;;;;;;;;;15.59;47.14;100202.88;5039045;28;926;-56
2023/06/26 04:18:15;;;;;;;;;;;;;;;15.52;47.57;100203.19;5037446;28;1457;-52
2023/06/26 04:20:41;;;;;;;;;;;;;;;15.57;47.14;100197.66;5038874;28;1207;-54
2023/06/26 04:23:06;;;;;;;;;;;;;;;15.67;47.16;100211.34;5033026;28;1008;-51
2023/06/26 04:25:32;;;;;;;;;;;;;;;15.63;47.12;100210.25;5030268;28;1060;-53
2023/06/26 04:27:57;;;;;;;;;;;;;;;15.64;47.31;100211.91;5038852;28;894;-56
2023/06/26 04:30:23;;;;;;;;;;;;;;;15.52;47.31;100204.00;5038711;28;1977;-52
2023/06/26 04:32:48;;;;;;;;;;;;;;;15.63;47.33;100204.78;5037568;28;1055;-53
2023/06/26 04:35:14;;;;;;;;;;;;;;;15.65;47.17;100209.97;5037903;28;1108;-54
2023/06/26 04:37:40;;;;;;;;;;;;;;;15.67;47.31;100205.00;5037906;28;1110;-53
2023/06/26 04:40:06;;;;;;;;;;;;;;;15.67;47.42;100205.00;5037900;28;933;-53
2023/06/26 04:42:32;;;;;;;;;;;;;;;15.61;47.53;100211.63;5038383;28;1091;-50
2023/06/26 04:44:58;;;;;;;;;;;;;;;15.62;47.34;100208.59;5024237;28;1104;-52
2023/06/26 04:47:23;;;;;;;;;;;;;;;15.75;47.10;100209.91;5037879;28;1066;-53
2023/06/26 04:49:49;;;;;;;;;;;;;;;15.66;47.51;100201.47;5052886;28;1910;-54
2023/06/26 04:52:14;;;;;;;;;;;;;;;15.68;47.20;100207.50;5057673;28;1020;-49
2023/06/26 04:54:40;;;;;;;;;;;;;;;17.09;45.68;100215.25;5057969;28;1088;-53
2023/06/26 04:57:05;;;;;;;;;;;;;;;17.01;46.06;100221.41;5057815;28;1083;-53
2023/06/26 04:59:31;;;;;;;;;;;;;;;16.83;46.89;100208.34;5041653;28;1092;-50
2023/06/26 05:01:56;;;;;;;;;;;;;;;16.69;47.52;100214.53;5045596;28;1028;-51
2023/06/26 05:04:22;;;;;;;;;;;;;;;16.55;48.38;100221.78;5057432;28;1112;-54
2023/06/26 05:06:48;;;;;;;;;;;;;;;16.60;48.38;100221.75;5057049;28;1036;-53
2023/06/26 05:09:13;;;;;;;;;;;;;;;16.51;48.91;100227.03;5057802;28;1902;-56
2023/06/26 05:11:39;;;;;;;;;;;;;;;16.50;49.01;100217.16;5057498;28;1053;-55
2023/06/26 05:14:07;;;;;;;;;;;;;;;16.48;49.62;100224.03;5057256;28;1143;-53
2023/06/26 05:16:32;;;;;;;;;;;;;;;16.45;49.66;100225.41;5039471;28;1125;-54
2023/06/26 05:18:58;;;;;;;;;;;;;;;16.50;49.62;100227.31;5057369;28;1282;-52
2023/06/26 05:21:23;;;;;;;;;;;;;;;16.40;50.27;100228.22;5056986;28;1128;-54
2023/06/26 05:23:49;;;;;;;;;;;;;;;16.36;50.56;100225.22;5039535;28;1434;-54
2023/06/26 05:26:15;;;;;;;;;;;;;;;16.36;50.60;100227.97;5053073;28;1222;-51
2023/06/26 05:28:40;;;;;;;;;;;;;;;16.30;51.12;100234.59;5057088;28;1226;-50
2023/06/26 05:31:06;;;;;;;;;;;;;;;16.35;51.20;100237.28;5056178;28;1989;-52
2023/06/26 05:33:31;;;;;;;;;;;;;;;16.78;50.62;100244.94;5057398;28;1060;-48
2023/06/26 05:35:59;;;;;;;;;;;;;;;17.47;49.21;100239.31;5039344;28;1379;-48
2023/06/26 05:38:24;;;;;;;;;;;;;;;16.93;50.79;100242.06;5057079;28;1148;-50
2023/06/26 05:40:50;;;;;;;;;;;;;;;16.79;51.11;100248.47;5057388;28;1048;-49
2023/06/26 05:43:16;;;;;;;;;;;;;;;16.72;51.55;100257.88;5057182;28;1071;-50
2023/06/26 05:45:41;;;;;;;;;;;;;;;16.62;51.62;100255.22;5057468;28;1021;-52
2023/06/26 05:48:07;;;;;;;;;;;;;;;16.56;52.06;100259.09;5054608;28;1055;-50
2023/06/26 05:50:32;;;;;;;;;;;;;;;16.57;51.96;100264.28;5029027;28;1914;-50
2023/06/26 05:52:58;;;;;;;;;;;;;;;16.49;52.11;100269.59;5057248;28;1321;-51
2023/06/26 05:55:24;;;;;;;;;;;;;;;16.39;52.54;100271.28;5057173;28;1223;-48
2023/06/26 05:57:50;;;;;;;;;;;;;;;16.42;52.40;100276.22;5056505;28;1036;-52
2023/06/26 06:00:15;;;;;;;;;;;;;;;16.39;52.66;100276.78;5039065;28;1458;-54
2023/06/26 06:02:41;;;;;;;;;;;;;;;16.30;52.64;100274.91;5056027;28;1075;-55
2023/06/26 06:05:07;;;;;;;;;;;;;;;16.25;53.09;100270.28;5056109;28;1345;-54
2023/06/26 06:07:33;;;;;;;;;;;;;;;16.78;52.63;100272.38;5054265;28;1036;-49
2023/06/26 06:09:58;;;;;;;;;;;;;;;17.55;51.15;100274.41;5033994;28;1882;-54
2023/06/26 06:12:24;;;;;;;;;;;;;;;16.96;52.57;100273.63;5054879;28;1346;-53
2023/06/26 06:14:49;;;;;;;;;;;;;;;16.79;52.97;100276.78;5056167;28;1206;-54
2023/06/26 06:17:15;;;;;;;;;;;;;;;16.74;53.12;100282.28;5043256;28;1060;-56
2023/06/26 06:19:40;;;;;;;;;;;;;;;16.72;53.11;100281.78;5056132;28;1132;-53
2023/06/26 06:22:06;;;;;;;;;;;;;;;16.58;53.21;100281.59;5042472;28;982;-54
2023/06/26 06:24:31;;;;;;;;;;;;;;;16.63;53.06;100276.06;5038205;28;1459;-52
2023/06/26 06:26:56;;;;;;;;;;;;;;;16.50;53.09;100282.22;5056090;28;1064;-54
2023/06/26 06:29:22;;;;;;;;;;;;;;;16.51;53.28;100287.41;5055110;28;1964;-53
2023/06/26 06:31:47;;;;;;;;;;;;;;;16.43;53.42;100285.25;5055728;28;1032;-53
2023/06/26 06:34:13;;;;;;;;;;;;;;;16.43;53.41;100290.75;5055865;28;1163;-53
2023/06/26 06:36:39;;;;;;;;;;;;;;;16.88;53.16;100288.78;5055067;28;1483;-53
2023/06/26 06:39:04;;;;;;;;;;;;;;;17.53;52.48;100292.31;5056114;28;1140;-56
2023/06/26 06:41:30;;;;;;;;;;;;;;;17.05;53.36;100296.59;5054211;28;1112;-55
2023/06/26 06:43:55;;;;;;;;;;;;;;;16.86;53.62;100290.19;5056207;28;1152;-56
2023/06/26 06:46:21;;;;;;;;;;;;;;;16.73;53.74;100286.16;5055747;28;1216;-53
2023/06/26 06:48:46;;;;;;;;;;;;;;;16.58;54.16;100296.13;5049788;28;1124;-55
2023/06/26 06:51:12;;;;;;;;;;;;;;;16.69;53.55;100291.41;5060815;28;1930;-56
2023/06/26 06:53:38;;;;;;;;;;;;;;;16.67;53.62;100288.09;5054769;28;1139;-56
2023/06/26 06:56:03;;;;;;;;;;;;;;;16.65;53.56;100281.25;5055483;28;1450;-52
2023/06/26 06:58:30;;;;;;;;;;;;;;;16.50;53.74;100290.44;5055104;28;1106;-56
2023/06/26 07:00:56;;;;;;;;;;;;;;;16.57;53.60;100282.69;5055429;28;1266;-55
2023/06/26 07:03:21;;;;;;;;;;;;;;;17.66;53.29;100290.81;5055754;28;1285;-54
2023/06/26 07:05:47;;;;;;;;;;;;;;;17.24;54.19;100291.22;5053995;28;1273;-58
2023/06/26 07:08:13;;;;;;;;;;;;;;;16.97;54.60;100286.28;5053479;28;1152;-57
2023/06/26 07:10:38;;;;;;;;;;;;;;;16.86;54.47;100292.94;5052483;28;1937;-52
2023/06/26 07:13:04;;;;;;;;;;;;;;;16.81;54.56;100295.72;5054998;28;1067;-52
2023/06/26 07:15:29;;;;;;;;;;;;;;;16.73;54.19;100286.97;5053799;28;1303;-56
2023/06/26 07:17:55;;;;;;;;;;;;;;;16.69;54.23;100290.56;5052957;28;1151;-57
2023/06/26 07:20:20;;;;;;;;;;;;;;;16.67;54.13;100288.09;5053004;28;1297;-62
2023/06/26 07:22:46;;;;;;;;;;;;;;;16.62;54.16;100290.06;5057235;28;1246;-49
2023/06/26 07:25:12;;;;;;;;;;;;;;;16.59;54.26;100285.97;5055157;28;1107;-58
2023/06/26 07:27:38;;;;;;;;;;;;;;;16.49;54.29;100289.59;5053987;28;1084;-55
2023/06/26 07:30:03;;;;;;;;;;;;;;;16.56;54.04;100292.03;5054905;28;2316;-56
2023/06/26 07:32:29;;;;;;;;;;;;;;;16.57;53.92;100290.94;5055730;28;1424;-54
2023/06/26 07:34:54;;;;;;;;;;;;;;;16.46;54.24;100292.91;5053751;28;1197;-54
2023/06/26 07:37:20;;;;;;;;;;;;;;;16.51;53.69;100294.81;5054075;28;1091;-56
2023/06/26 07:39:45;;;;;;;;;;;;;;;16.52;53.56;100297.28;5053364;28;1190;-55
2023/06/26 07:42:11;;;;;;;;;;;;;;;16.50;54.08;100294.00;5055077;28;1305;-57
2023/06/26 07:44:36;;;;;;;;;;;;;;;17.66;54.03;100291.63;5055272;28;1372;-56
2023/06/26 07:47:02;;;;;;;;;;;;;;;17.26;54.71;100296.44;5054849;28;1305;-57
2023/06/26 07:49:28;;;;;;;;;;;;;;;16.97;55.04;100291.75;5054986;28;1917;-55
2023/06/26 07:51:53;;;;;;;;;;;;;;;16.89;54.68;100290.44;5055059;28;1064;-55
2023/06/26 07:54:19;;;;;;;;;;;;;;;16.75;54.93;100295.75;5058997;28;1384;-51
2023/06/26 07:56:57;;;;;;;;;;;;;;;16.76;54.77;100289.16;5059200;28;1340;-53
2023/06/26 07:59:23;;;;;;;;;;;;;;;16.76;54.28;100291.09;5059159;28;1270;-54
2023/06/26 08:01:49;;;;;;;;;;;;;;;16.74;54.48;100296.84;5059188;28;1458;-53
2023/06/26 08:04:15;;;;;;;;;;;;;;;16.67;54.19;100293.59;5059116;28;1135;-53
2023/06/26 08:06:40;;;;;;;;;;;;;;;16.65;54.07;100287.59;5058576;28;1059;-57
2023/06/26 08:09:07;;;;;;;;;;;;;;;16.73;53.79;100281.50;5059139;28;1902;-59
2023/06/26 08:11:33;;;;;;;;;;;;;;;16.65;53.92;100298.56;5057763;28;1080;-56
2023/06/26 08:13:58;;;;;;;;;;;;;;;16.67;53.99;100299.09;5058576;28;1092;-54
2023/06/26 08:16:24;;;;;;;;;;;;;;;16.46;54.18;100297.59;5057626;28;1076;-56
2023/06/26 08:18:49;;;;;;;;;;;;;;;16.56;53.81;100292.88;5059020;28;1080;-56
2023/06/26 08:21:15;;;;;;;;;;;;;;;16.48;54.26;100295.38;5058633;28;1065;-53
2023/06/26 08:23:40;;;;;;;;;;;;;;;16.46;54.04;100297.59;5058809;28;1102;-57
2023/06/26 08:26:06;;;;;;;;;;;;;;;16.49;53.94;100297.03;5058627;28;1134;-57
2023/06/26 08:28:31;;;;;;;;;;;;;;;16.47;53.83;100291.81;5058963;28;1040;-56
2023/06/26 08:30:57;;;;;;;;;;;;;;;16.77;54.67;100293.53;5058313;28;1913;-51
2023/06/26 08:33:22;;;;;;;;;;;;;;;17.59;54.63;100302.16;5058873;28;1190;-57
2023/06/26 08:35:49;;;;;;;;;;;;;;;17.14;55.21;100304.22;5059190;28;1176;-57
2023/06/26 08:38:15;;;;;;;;;;;;;;;17.02;55.17;100296.38;5057681;28;1305;-54
2023/06/26 08:40:40;;;;;;;;;;;;;;;16.87;54.98;100291.81;5057908;28;1352;-51
2023/06/26 08:43:06;;;;;;;;;;;;;;;16.84;54.88;100303.38;5057672;28;1321;-55
2023/06/26 08:45:31;;;;;;;;;;;;;;;16.78;54.61;100308.06;5057268;28;1032;-56
2023/06/26 08:47:58;;;;;;;;;;;;;;;16.71;54.68;100297.41;5039700;28;1079;-55
2023/06/26 08:50:24;;;;;;;;;;;;;;;16.75;54.14;100301.22;5057756;28;1914;-56
2023/06/26 08:53:00;;;;;;;;;;;;;;;16.73;54.12;100297.97;5049795;28;870;-57
2023/06/26 08:55:26;;;;;;;;;;;;;;;16.61;54.43;100303.00;5036450;28;1120;-56
2023/06/26 08:57:53;;;;;;;;;;;;;;;16.64;54.13;100296.91;5058073;28;1143;-57
2023/06/26 09:00:19;;;;;;;;;;;;;;;16.56;54.25;100297.53;5058032;28;1377;-56
2023/06/26 09:02:44;;;;;;;;;;;;;;;16.49;54.28;100302.50;5057074;28;1360;-56
2023/06/26 09:05:10;;;;;;;;;;;;;;;16.54;54.19;100303.31;5047185;28;922;-56
2023/06/26 09:07:36;;;;;;;;;;;;;;;16.51;54.46;100305.78;5035215;28;1122;-56
2023/06/26 09:10:01;;;;;;;;;;;;;;;16.58;54.05;100309.06;5046069;28;1910;-56
2023/06/26 09:12:27;;;;;;;;;;;;;;;16.53;53.84;100298.09;5056877;28;1024;-56
2023/06/26 09:14:55;;;;;;;;;;;;;;;16.55;53.86;100301.38;5037890;28;1159;-56
2023/06/26 09:17:23;;;;;;;;;;;;;;;16.49;54.13;100305.25;5050714;28;1064;-56
2023/06/26 09:19:48;;;;;;;;;;;;;;;16.37;54.39;100300.94;5045546;28;1060;-57
2023/06/26 09:22:14;;;;;;;;;;;;;;;16.47;54.16;100308.28;5057466;28;1171;-54
2023/06/26 09:24:41;;;;;;;;;;;;;;;17.41;54.81;100304.50;5050081;28;1023;-55
2023/06/26 09:27:06;;;;;;;;;;;;;;;17.38;55.54;100301.53;5048526;28;1320;-55
2023/06/26 09:29:33;;;;;;;;;;;;;;;17.10;55.57;100302.06;5050330;28;1945;-56
2023/06/26 09:31:59;;;;;;;;;;;;;;;16.99;55.36;100300.53;5055977;28;1348;-60
2023/06/26 09:34:30;;;;;;;;;;;;;;;16.89;55.21;100298.69;5056343;28;1032;-58
2023/06/26 09:36:55;;;;;;;;;;;;;;;16.81;55.01;100292.97;5056025;28;1096;-55
2023/06/26 09:39:21;;;;;;;;;;;;;;;16.88;54.64;100298.94;5039424;28;1187;-56
2023/06/26 09:41:46;;;;;;;;;;;;;;;16.88;54.57;100309.94;5054474;28;999;-56
2023/06/26 09:44:13;;;;;;;;;;;;;;;16.75;54.48;100306.72;5055592;28;1144;-55
2023/06/26 09:46:38;;;;;;;;;;;;;;;16.68;54.73;100310.91;5056854;28;984;-56
2023/06/26 09:49:08;;;;;;;;;;;;;;;16.67;54.42;100304.56;5042354;28;1987;-56
2023/06/26 09:51:34;;;;;;;;;;;;;;;16.66;54.44;100297.47;5046230;28;1069;-54
2023/06/26 09:54:00;;;;;;;;;;;;;;;16.65;54.54;100309.56;5043251;28;1222;-56
2023/06/26 09:56:25;;;;;;;;;;;;;;;16.69;54.02;100294.16;5056761;28;1110;-56
2023/06/26 09:58:51;;;;;;;;;;;;;;;16.55;54.36;100290.38;5056605;28;1448;-50
2023/06/26 10:01:17;;;;;;;;;;;;;;;16.63;54.06;100292.53;5056991;28;1135;-55
2023/06/26 10:03:42;;;;;;;;;;;;;;;16.63;54.05;100302.69;5056800;28;1237;-50
2023/06/26 10:06:09;;;;;;;;;;;;;;;16.61;54.11;100289.25;5048265;28;927;-52
2023/06/26 10:08:34;;;;;;;;;;;;;;;16.75;54.70;100295.75;5043022;28;1171;-50
2023/06/26 10:11:00;;;;;;;;;;;;;;;16.60;55.06;100299.41;5038718;28;1976;-50
2023/06/26 10:13:27;;;;;;;;;;;;;;;16.55;54.99;100290.38;5037654;28;1071;-49
2023/06/26 10:15:53;;;;;;;;;;;;;;;16.60;54.75;100293.09;5031574;28;1021;-48
2023/06/26 10:18:19;;;;;;;;;;;;;;;16.64;54.87;100293.38;5049635;28;1136;-49
2023/06/26 10:20:45;;;;;;;;;;;;;;;16.71;55.06;100286.44;5032104;28;1103;-47
2023/06/26 10:23:11;;;;;;;;;;;;;;;16.80;55.38;100289.38;5056362;28;1251;-51
2023/06/26 10:25:37;;;;;;;;;;;;;;;16.76;55.34;100277.34;5056174;28;984;-49
2023/06/26 10:28:03;;;;;;;;;;;;;;;16.68;55.53;100284.25;5056607;28;1226;-47
2023/06/26 10:30:33;;;;;;;;;;;;;;;16.64;55.49;100277.69;5041501;28;1988;-49
2023/06/26 10:32:59;;;;;;;;;;;;;;;16.71;55.08;100269.97;5036253;28;1160;-46
2023/06/26 10:35:24;;;;;;;;;;;;;;;16.64;54.92;100272.22;5018766;28;1068;-54
2023/06/26 10:37:50;;;;;;;;;;;;;;;16.61;54.98;100283.78;5045310;28;1143;-54
2023/06/26 10:40:22;;;;;;;;;;;;;;;16.60;54.70;100277.44;5056228;28;1072;-54
2023/06/26 10:42:47;;;;;;;;;;;;;;;16.61;54.77;100267.31;5046424;28;802;-54
2023/06/26 10:45:14;;;;;;;;;;;;;;;16.58;54.74;100265.13;5038003;28;1327;-54
2023/06/26 10:47:40;;;;;;;;;;;;;;;16.59;54.39;100264.00;5056325;28;1047;-54
2023/06/26 10:50:21;;;;;;;;;;;;;;;16.66;54.41;100267.28;5055694;28;1902;-52
2023/06/26 10:53:06;;;;;;;;;;;;;;;16.57;54.48;100255.25;5037693;28;1343;-48
2023/06/26 10:55:32;;;;;;;;;;;;;;;16.55;54.29;100258.28;5043546;28;1024;-50
2023/06/26 10:57:57;;;;;;;;;;;;;;;16.57;54.43;100252.50;5055739;28;1035;-49
2023/06/26 11:00:23;;;;;;;;;;;;;;;16.53;54.40;100249.50;5056050;28;1176;-51
2023/06/26 11:02:49;;;;;;;;;;;;;;;16.52;54.50;100269.00;5042425;28;1067;-51
2023/06/26 11:05:23;;;;;;;;;;;;;;;16.53;54.47;100259.69;5055777;28;1059;-50
2023/06/26 11:08:04;;;;;;;;;;;;;;;16.52;54.63;100258.88;5040423;28;1144;-48
2023/06/26 11:10:29;;;;;;;;;;;;;;;16.55;54.54;100247.31;5035354;28;1906;-52
2023/06/26 11:12:55;;;;;;;;;;;;;;;16.49;54.95;100262.16;5051416;28;1056;-48
2023/06/26 11:15:20;;;;;;;;;;;;;;;16.57;54.44;100250.56;5038122;28;1334;-51
2023/06/26 11:17:46;;;;;;;;;;;;;;;16.50;54.95;100249.28;5054925;28;1130;-54
2023/06/26 11:20:12;;;;;;;;;;;;;;;16.36;55.33;100244.41;5037758;28;1314;-50
2023/06/26 11:22:37;;;;;;;;;;;;;;;16.49;54.87;100248.44;5045250;28;1032;-52
2023/06/26 11:25:03;;;;;;;;;;;;;;;16.57;54.55;100238.78;5043223;28;1088;-50
2023/06/26 11:27:32;;;;;;;;;;;;;;;16.49;54.88;100242.94;5056751;28;1097;-48
2023/06/26 11:29:58;;;;;;;;;;;;;;;16.49;54.69;100247.63;5059178;28;1906;-52
2023/06/26 11:32:25;;;;;;;;;;;;;;;16.42;54.96;100242.47;5045932;28;1083;-47
2023/06/26 11:34:51;;;;;;;;;;;;;;;16.87;55.76;100239.63;5041877;28;1203;-46
2023/06/26 11:37:17;;;;;;;;;;;;;;;17.44;56.50;100240.72;5043998;28;1083;-50
2023/06/26 11:39:42;;;;;;;;;;;;;;;17.12;56.38;100237.78;5049059;28;1519;-46
2023/06/26 11:42:08;;;;;;;;;;;;;;;16.88;56.42;100235.78;5038962;28;1087;-51
2023/06/26 11:44:38;;;;;;;;;;;;;;;16.80;56.35;100236.41;5038783;28;1179;-45
2023/06/26 11:47:04;;;;;;;;;;;;;;;16.71;55.98;100237.00;5038663;28;1061;-47
2023/06/26 11:49:29;;;;;;;;;;;;;;;16.85;55.51;100244.59;5058906;28;1909;-51
2023/06/26 11:51:55;;;;;;;;;;;;;;;16.74;55.41;100247.41;5059370;28;1111;-51
2023/06/26 11:54:27;;;;;;;;;;;;;;;16.71;55.22;100238.94;5048945;28;902;-45
2023/06/26 11:56:53;;;;;;;;;;;;;;;16.81;54.73;100240.78;5044056;28;1186;-53
2023/06/26 11:59:19;;;;;;;;;;;;;;;16.75;55.04;100240.81;5058964;28;1063;-52
2023/06/26 12:01:45;;;;;;;;;;;;;;;16.64;55.12;100236.53;5059206;28;1067;-52
2023/06/26 12:04:11;;;;;;;;;;;;;;;16.66;54.87;100237.06;5047556;28;1035;-53
2023/06/26 12:06:37;;;;;;;;;;;;;;;16.62;54.77;100238.75;5032862;28;1387;-49
2023/06/26 12:09:06;;;;;;;;;;;;;;;16.65;54.85;100232.69;5041493;28;1910;-47
2023/06/26 12:11:32;;;;;;;;;;;;;;;16.56;55.05;100229.75;5056752;28;1051;-46
2023/06/26 12:13:58;;;;;;;;;;;;;;;16.69;54.53;100235.66;5029938;28;1139;-45
2023/06/26 12:16:23;;;;;;;;;;;;;;;16.72;54.36;100240.59;5031137;28;1056;-46
2023/06/26 12:18:49;;;;;;;;;;;;;;;16.58;54.88;100240.44;5035043;28;1243;-47
2023/06/26 12:21:34;;;;;;;;;;;;;;;16.65;54.42;100246.41;5039339;28;1194;-48
2023/06/26 12:24:00;;;;;;;;;;;;;;;16.60;54.61;100241.75;5037151;28;1595;-52
2023/06/26 12:26:25;;;;;;;;;;;;;;;16.51;54.85;100245.41;5040449;28;1092;-46
2023/06/26 12:28:51;;;;;;;;;;;;;;;16.60;54.43;100249.19;5058747;28;1083;-50
2023/06/26 12:31:17;;;;;;;;;;;;;;;16.58;54.50;100254.97;5058271;28;1917;-48
2023/06/26 12:33:43;;;;;;;;;;;;;;;16.60;54.56;100263.72;5057985;28;1262;-45
2023/06/26 12:36:12;;;;;;;;;;;;;;;16.62;54.44;100259.88;5058636;28;1024;-45
2023/06/26 12:38:38;;;;;;;;;;;;;;;16.51;54.44;100262.72;5057802;28;1057;-50
2023/06/26 12:41:03;;;;;;;;;;;;;;;16.55;54.27;100262.94;5057658;28;1298;-54
2023/06/26 12:43:29;;;;;;;;;;;;;;;16.54;54.55;100264.06;5045276;28;945;-55